createdAt,value
2022-10-03T00:02:53.628Z,21.13
2022-10-03T00:08:49.695Z,21.04
2022-10-03T00:14:03.403Z,20.98
2022-10-03T00:19:44.827Z,21.00
2022-10-03T00:25:20.410Z,20.89
2022-10-03T00:30:24.949Z,20.81
2022-10-03T00:35:51.697Z,20.75
2022-10-03T00:41:31.006Z,20.70
2022-10-03T00:46:39.252Z,20.58
2022-10-03T00:51:56.936Z,20.51
2022-10-03T00:57:11.749Z,20.38
2022-10-03T01:02:19.970Z,20.45
2022-10-03T01:07:58.633Z,20.40
2022-10-03T01:13:17.118Z,20.36
2022-10-03T01:18:38.115Z,20.24
2022-10-03T01:23:57.891Z,20.33
2022-10-03T01:29:25.677Z,20.33
2022-10-03T01:34:52.307Z,20.28
2022-10-03T01:40:27.720Z,20.26
2022-10-03T01:46:05.860Z,20.17
2022-10-03T01:51:19.490Z,20.05
2022-10-03T01:56:27.765Z,19.75
2022-10-03T02:01:36.293Z,19.55
2022-10-03T02:07:06.040Z,19.34
2022-10-03T02:12:14.779Z,18.94
2022-10-03T02:17:24.462Z,19.06
2022-10-03T02:22:40.007Z,18.89
2022-10-03T02:28:19.656Z,19.07
2022-10-03T02:33:33.602Z,19.08
2022-10-03T02:39:06.609Z,19.08
2022-10-03T02:44:46.862Z,19.06
2022-10-03T02:50:07.455Z,18.97
2022-10-03T02:55:41.903Z,18.94
2022-10-03T03:01:08.709Z,18.88
2022-10-03T03:06:43.448Z,18.72
2022-10-03T03:12:06.957Z,18.83
2022-10-03T03:17:35.573Z,18.79
2022-10-03T03:22:58.541Z,18.78
2022-10-03T03:28:22.507Z,18.51
2022-10-03T03:33:46.591Z,18.81
2022-10-03T03:38:57.722Z,18.81
2022-10-03T03:44:14.916Z,18.85
2022-10-03T03:49:32.170Z,18.87
2022-10-03T03:54:42.301Z,18.91
2022-10-03T03:59:56.261Z,18.89
2022-10-03T04:05:13.515Z,18.94
2022-10-03T04:10:30.614Z,18.91
2022-10-03T04:15:44.727Z,18.80
2022-10-03T04:21:18.895Z,18.77
2022-10-03T04:26:48.917Z,18.68
2022-10-03T04:31:58.345Z,18.61
2022-10-03T04:37:07.187Z,18.45
2022-10-03T04:42:26.743Z,18.19
2022-10-03T04:47:58.110Z,18.09
2022-10-03T04:53:21.923Z,18.10
2022-10-03T04:59:06.154Z,18.10
2022-10-03T05:04:28.509Z,18.08
2022-10-03T05:09:40.898Z,18.11
2022-10-03T05:15:06.182Z,18.23
2022-10-03T05:20:39.038Z,18.11
2022-10-03T05:25:54.177Z,18.26
2022-10-03T05:31:12.604Z,18.36
2022-10-03T05:36:19.309Z,18.57
2022-10-03T05:41:31.944Z,18.74
2022-10-03T05:46:59.966Z,18.74
2022-10-03T05:52:26.611Z,18.67
2022-10-03T05:57:43.642Z,18.93
2022-10-03T06:03:01.317Z,19.12
2022-10-03T06:08:42.307Z,19.25
2022-10-03T06:14:24.442Z,19.38
2022-10-03T06:19:55.654Z,19.52
2022-10-03T06:25:22.201Z,19.74
2022-10-03T06:30:55.088Z,19.80
2022-10-03T06:36:34.587Z,20.00
2022-10-03T06:42:17.020Z,20.15
2022-10-03T06:47:36.494Z,20.21
2022-10-03T06:52:55.560Z,20.49
2022-10-03T06:58:20.243Z,20.66
2022-10-03T07:03:43.981Z,20.90
2022-10-03T07:09:11.008Z,21.13
2022-10-03T07:14:34.230Z,21.27
2022-10-03T07:20:06.079Z,21.44
2022-10-03T07:25:44.621Z,21.51
2022-10-03T07:30:58.713Z,21.74
2022-10-03T07:36:50.106Z,21.92
2022-10-03T07:42:08.857Z,22.10
2022-10-03T07:47:42.329Z,22.34
2022-10-03T07:53:01.466Z,22.41
2022-10-03T07:58:58.523Z,22.69
2022-10-03T08:04:22.524Z,22.92
2022-10-03T08:09:40.059Z,23.13
2022-10-03T08:14:58.222Z,23.33
2022-10-03T08:20:12.351Z,23.38
2022-10-03T08:25:29.994Z,23.75
2022-10-03T08:30:51.340Z,23.88
2022-10-03T08:36:11.863Z,24.12
2022-10-03T08:41:54.109Z,24.34
2022-10-03T08:47:27.026Z,24.42
2022-10-03T08:52:41.042Z,24.60
2022-10-03T08:58:15.111Z,24.75
2022-10-03T09:04:02.137Z,24.87
2022-10-03T09:09:36.629Z,25.06
2022-10-03T09:14:53.322Z,25.14
2022-10-03T09:20:35.108Z,25.31
2022-10-03T09:26:25.186Z,25.39
2022-10-03T09:31:30.458Z,25.41
2022-10-03T09:37:06.054Z,25.64
2022-10-03T09:42:23.345Z,25.78
2022-10-03T09:47:56.331Z,25.88
2022-10-03T09:53:07.491Z,26.12
2022-10-03T09:59:06.095Z,26.28
2022-10-03T10:04:58.086Z,26.36
2022-10-03T10:10:28.074Z,26.33
2022-10-03T10:15:33.442Z,26.59
2022-10-03T10:20:38.431Z,26.72
2022-10-03T10:26:05.012Z,26.94
2022-10-03T10:31:45.600Z,26.97
2022-10-03T10:36:50.435Z,26.98
2022-10-03T10:42:16.288Z,27.15
2022-10-03T10:47:52.246Z,27.32
2022-10-03T10:53:33.475Z,27.34
2022-10-03T10:59:03.443Z,27.33
2022-10-03T11:04:30.439Z,27.34
2022-10-03T11:10:03.477Z,27.28
2022-10-03T11:15:20.716Z,27.63
2022-10-03T11:21:13.603Z,27.70
2022-10-03T11:26:57.964Z,27.76
2022-10-03T11:32:21.854Z,28.16
2022-10-03T11:37:27.136Z,28.19
2022-10-03T11:42:40.106Z,28.28
2022-10-03T11:48:00.242Z,28.38
2022-10-03T11:53:11.294Z,28.69
2022-10-03T11:58:41.842Z,28.82
2022-10-03T12:04:04.412Z,28.94
2022-10-03T12:09:39.953Z,28.88
2022-10-03T12:14:49.664Z,29.03
2022-10-03T12:20:06.875Z,29.07
2022-10-03T12:25:18.141Z,29.13
2022-10-03T12:30:22.285Z,28.98
2022-10-03T12:35:30.259Z,29.17
2022-10-03T12:40:42.511Z,29.06
2022-10-03T12:46:10.576Z,29.22
2022-10-03T12:51:30.317Z,29.31
2022-10-03T12:57:10.523Z,29.42
2022-10-03T13:02:38.392Z,29.47
2022-10-03T13:08:22.272Z,29.39
2022-10-03T13:13:40.309Z,29.72
2022-10-03T13:18:48.430Z,29.80
2022-10-03T13:24:05.934Z,29.75
2022-10-03T13:29:30.544Z,29.94
2022-10-03T13:34:41.552Z,30.09
2022-10-03T13:39:51.389Z,30.16
2022-10-03T13:45:04.127Z,30.24
2022-10-03T13:50:15.880Z,30.36
2022-10-03T13:55:57.537Z,30.36
2022-10-03T14:01:33.879Z,30.61
2022-10-03T14:07:02.297Z,30.81
2022-10-03T14:12:54.238Z,31.03
2022-10-03T14:18:22.531Z,31.15
2022-10-03T14:23:40.155Z,31.31
2022-10-03T14:28:57.973Z,31.49
2022-10-03T14:34:09.192Z,31.61
2022-10-03T14:39:33.355Z,31.37
2022-10-03T14:44:41.817Z,31.62
2022-10-03T14:49:59.548Z,31.52
2022-10-03T14:55:32.255Z,31.42
2022-10-03T15:00:44.067Z,30.69
2022-10-03T15:05:55.447Z,30.34
2022-10-03T15:10:59.020Z,29.75
2022-10-03T15:16:02.639Z,29.55
2022-10-03T15:21:06.476Z,29.02
2022-10-03T15:26:15.602Z,29.06
2022-10-03T15:31:36.683Z,29.02
2022-10-03T15:36:41.857Z,28.78
2022-10-03T15:41:57.451Z,28.50
2022-10-03T15:47:06.569Z,27.99
2022-10-03T15:52:23.367Z,27.49
2022-10-03T15:57:32.411Z,27.28
2022-10-03T16:02:45.032Z,26.76
2022-10-03T16:07:50.272Z,26.65
2022-10-03T16:13:17.194Z,26.34
2022-10-03T16:18:19.294Z,26.09
2022-10-03T16:23:38.324Z,25.87
2022-10-03T16:28:58.747Z,25.70
2022-10-03T16:34:07.233Z,25.55
2022-10-03T16:39:26.388Z,25.40
2022-10-03T16:44:49.120Z,25.09
2022-10-03T16:50:18.193Z,24.93
2022-10-03T16:55:35.140Z,24.94
2022-10-03T17:01:22.077Z,24.78
2022-10-03T17:06:30.341Z,24.72
2022-10-03T17:11:38.511Z,24.45
2022-10-03T17:17:06.413Z,24.26
2022-10-03T17:22:21.195Z,24.11
2022-10-03T17:27:33.071Z,24.21
2022-10-03T17:32:40.748Z,24.10
2022-10-03T17:38:30.387Z,23.98
2022-10-03T17:43:46.889Z,24.00
2022-10-03T17:49:21.568Z,23.84
2022-10-03T17:54:33.717Z,23.80
2022-10-03T17:59:55.490Z,23.64
2022-10-03T18:05:22.051Z,23.61
2022-10-03T18:10:34.986Z,23.52
2022-10-03T18:15:58.949Z,23.60
2022-10-03T18:21:08.297Z,23.36
2022-10-03T18:26:25.397Z,23.34
2022-10-03T18:31:34.524Z,23.14
2022-10-03T18:36:46.318Z,22.82
2022-10-03T18:41:52.635Z,23.02
2022-10-03T18:47:17.959Z,23.06
2022-10-03T18:52:24.707Z,22.92
2022-10-03T18:57:38.084Z,22.43
2022-10-03T19:03:04.409Z,22.83
2022-10-03T19:08:27.915Z,22.52
2022-10-03T19:13:43.910Z,22.76
2022-10-03T19:19:24.726Z,22.67
2022-10-03T19:24:56.782Z,22.60
2022-10-03T19:29:56.739Z,22.47
2022-10-03T19:35:05.822Z,22.41
2022-10-03T19:40:34.302Z,22.53
2022-10-03T19:45:38.141Z,22.44
2022-10-03T19:50:40.585Z,22.59
2022-10-03T19:55:44.951Z,22.50
2022-10-03T20:00:58.957Z,22.47
2022-10-03T20:06:02.318Z,22.63
2022-10-03T20:11:26.498Z,22.59
2022-10-03T20:16:36.283Z,22.52
2022-10-03T20:21:39.126Z,22.71
2022-10-03T20:26:54.280Z,22.46
2022-10-03T20:32:05.869Z,22.60
2022-10-03T20:37:43.499Z,22.57
2022-10-03T20:42:48.327Z,22.49
2022-10-03T20:48:01.552Z,22.09
2022-10-03T20:53:13.572Z,22.09
2022-10-03T20:58:34.557Z,22.25
2022-10-03T21:03:58.259Z,22.39
2022-10-03T21:09:06.065Z,21.94
2022-10-03T21:14:15.722Z,22.32
2022-10-03T21:19:48.206Z,22.22
2022-10-03T21:25:04.522Z,22.31
2022-10-03T21:30:13.071Z,22.29
2022-10-03T21:35:27.016Z,22.24
2022-10-03T21:41:10.546Z,22.19
2022-10-03T21:46:38.304Z,22.22
2022-10-03T21:52:10.486Z,21.72
2022-10-03T21:57:24.635Z,21.98
2022-10-03T22:02:32.895Z,21.85
2022-10-03T22:07:43.496Z,21.42
2022-10-03T22:12:52.146Z,21.48
2022-10-03T22:18:04.003Z,21.27
2022-10-03T22:23:15.349Z,21.32
2022-10-03T22:28:17.717Z,21.25
2022-10-03T22:33:36.440Z,21.17
2022-10-03T22:38:41.047Z,20.97
2022-10-03T22:43:44.247Z,21.07
2022-10-03T22:48:50.661Z,21.30
2022-10-03T22:54:00.747Z,21.38
2022-10-03T22:59:07.477Z,21.13
2022-10-03T23:04:36.109Z,21.38
2022-10-03T23:09:55.636Z,21.05
2022-10-03T23:15:00.847Z,21.34
2022-10-03T23:20:15.193Z,21.02
2022-10-03T23:25:27.483Z,21.04
2022-10-03T23:30:35.494Z,21.36
2022-10-03T23:35:41.866Z,21.29
2022-10-03T23:40:48.557Z,21.14
2022-10-03T23:45:53.973Z,21.01
2022-10-03T23:51:01.004Z,21.14
2022-10-03T23:56:06.145Z,21.09
